Time;durP1;ratioP1;P1;durP2;ratioP2;P2;SDS_P1;SDS_P2;PMS_P1;PMS_P2;Temp;Humidity;BMP_temperature;BMP_pressure;BME280_temperature;BME280_humidity;BME280_pressure;Samples;Min_cycle;Max_cycle;Signal;HPM_P1;HPM_P2
2021/11/01 00:01:50;;;;;;;30.35;19.27;;;;;;;;;;5056553;28;20392;-74
2021/11/01 00:04:16;;;;;;;30.27;19.45;;;;;;;;;;5074114;28;20028;-73
2021/11/01 00:06:43;;;;;;;33.95;19.10;;;;;;;;;;5073885;28;20016;-73
2021/11/01 00:09:09;;;;;;;29.85;17.75;;;;;;;;;;5074400;28;20032;-72
2021/11/01 00:11:36;;;;;;;34.63;19.65;;;;;;;;;;5073733;28;20047;-72
2021/11/01 00:14:02;;;;;;;35.13;20.48;;;;;;;;;;5073754;28;20029;-72
2021/11/01 00:16:29;;;;;;;39.90;23.02;;;;;;;;;;5073974;28;20031;-72
2021/11/01 00:18:56;;;;;;;43.42;24.20;;;;;;;;;;5074009;28;20021;-72
2021/11/01 00:21:24;;;;;;;35.30;21.88;;;;;;;;;;5072968;28;20029;-72
2021/11/01 00:23:50;;;;;;;34.65;20.60;;;;;;;;;;5073789;28;20023;-72
2021/11/01 00:26:17;;;;;;;29.40;18.80;;;;;;;;;;5073810;28;20037;-72
2021/11/01 00:28:44;;;;;;;27.58;17.10;;;;;;;;;;5073386;28;20051;-72
2021/11/01 00:31:10;;;;;;;26.85;16.75;;;;;;;;;;5073613;28;20021;-71
2021/11/01 00:33:37;;;;;;;22.60;15.63;;;;;;;;;;5073878;28;20032;-72
2021/11/01 00:36:03;;;;;;;23.40;14.77;;;;;;;;;;5073241;28;20055;-72
2021/11/01 00:38:30;;;;;;;26.05;15.30;;;;;;;;;;5073593;28;20105;-72
2021/11/01 00:40:56;;;;;;;27.33;16.30;;;;;;;;;;5073203;28;20165;-72
2021/11/01 00:43:22;;;;;;;23.00;13.80;;;;;;;;;;5073791;28;20483;-72
2021/11/01 00:45:49;;;;;;;25.20;13.82;;;;;;;;;;5073512;28;20054;-72
2021/11/01 00:48:15;;;;;;;26.17;14.25;;;;;;;;;;5073145;28;20392;-72
2021/11/01 00:50:43;;;;;;;21.08;14.10;;;;;;;;;;5073833;28;20098;-72
2021/11/01 00:53:09;;;;;;;29.90;16.60;;;;;;;;;;5073360;28;20132;-75
2021/11/01 00:55:48;;;;;;;24.15;14.23;;;;;;;;;;5073157;28;20385;-74
2021/11/01 00:58:15;;;;;;;23.65;14.93;;;;;;;;;;5073642;28;20082;-73
2021/11/01 01:00:42;;;;;;;37.47;20.00;;;;;;;;;;5055324;28;20461;-72
2021/11/01 01:03:10;;;;;;;37.30;19.05;;;;;;;;;;5073040;28;20024;-72
2021/11/01 01:05:36;;;;;;;38.35;18.67;;;;;;;;;;5073223;28;20027;-72
2021/11/01 01:08:03;;;;;;;30.85;16.20;;;;;;;;;;5055238;28;20024;-72
2021/11/01 01:10:29;;;;;;;34.38;18.70;;;;;;;;;;5054824;28;20029;-73
2021/11/01 01:12:55;;;;;;;31.08;17.40;;;;;;;;;;5073033;28;20071;-72
2021/11/01 01:15:25;;;;;;;31.48;16.92;;;;;;;;;;5073095;28;20100;-73
2021/11/01 01:17:52;;;;;;;28.48;15.32;;;;;;;;;;5072809;28;20119;-72
2021/11/01 01:20:21;;;;;;;24.67;14.50;;;;;;;;;;5073721;28;20017;-72
2021/11/01 01:22:48;;;;;;;26.77;16.67;;;;;;;;;;5073028;28;20028;-72
2021/11/01 01:25:29;;;;;;;28.73;16.27;;;;;;;;;;5072897;28;20021;-72
2021/11/01 01:27:56;;;;;;;26.92;14.32;;;;;;;;;;5072958;28;20029;-72
2021/11/01 01:30:23;;;;;;;29.42;17.98;;;;;;;;;;5072862;28;20120;-72
2021/11/01 01:32:49;;;;;;;28.92;16.52;;;;;;;;;;5073422;28;20033;-71
2021/11/01 01:35:15;;;;;;;26.60;14.15;;;;;;;;;;5077254;28;20021;-72
2021/11/01 01:37:42;;;;;;;26.60;14.45;;;;;;;;;;5076674;28;20025;-72
2021/11/01 01:40:10;;;;;;;24.85;14.95;;;;;;;;;;5076983;28;20024;-72
2021/11/01 01:42:37;;;;;;;21.95;12.98;;;;;;;;;;5076888;28;20469;-72
2021/11/01 01:45:04;;;;;;;24.45;14.10;;;;;;;;;;5076545;28;20024;-72
2021/11/01 01:47:30;;;;;;;24.83;13.48;;;;;;;;;;5077094;28;20031;-72
2021/11/01 01:49:56;;;;;;;25.63;15.25;;;;;;;;;;5076798;28;20027;-72
2021/11/01 01:52:23;;;;;;;29.70;15.10;;;;;;;;;;5058303;28;20404;-72
2021/11/01 01:54:49;;;;;;;26.30;14.55;;;;;;;;;;5058934;28;20043;-72
2021/11/01 01:57:15;;;;;;;24.05;14.07;;;;;;;;;;5058597;28;20396;-72
2021/11/01 01:59:43;;;;;;;21.52;12.90;;;;;;;;;;5076130;28;20380;-72
2021/11/01 02:02:09;;;;;;;23.05;13.60;;;;;;;;;;5077026;28;20371;-72
2021/11/01 02:04:37;;;;;;;21.10;12.70;;;;;;;;;;5076571;28;20505;-72
2021/11/01 02:07:08;;;;;;;19.42;14.00;;;;;;;;;;5075969;28;20033;-72
2021/11/01 02:09:42;;;;;;;23.17;12.90;;;;;;;;;;5076461;28;20030;-72
2021/11/01 02:12:24;;;;;;;21.25;13.18;;;;;;;;;;5076365;28;20040;-72
2021/11/01 02:14:53;;;;;;;21.90;14.02;;;;;;;;;;5058287;28;20024;-72
2021/11/01 02:17:25;;;;;;;24.40;15.35;;;;;;;;;;5076476;28;20086;-72
2021/11/01 02:19:53;;;;;;;21.50;13.77;;;;;;;;;;5076015;28;20031;-72
2021/11/01 02:22:35;;;;;;;20.70;12.88;;;;;;;;;;5076091;28;20028;-72
2021/11/01 02:25:07;;;;;;;20.27;12.13;;;;;;;;;;5075988;28;20480;-72
2021/11/01 02:27:35;;;;;;;19.67;12.02;;;;;;;;;;5075819;28;20033;-72
2021/11/01 02:30:02;;;;;;;22.65;13.10;;;;;;;;;;5076047;28;20017;-72
2021/11/01 02:32:28;;;;;;;23.45;14.52;;;;;;;;;;5057902;28;20030;-72
2021/11/01 02:34:55;;;;;;;20.30;12.90;;;;;;;;;;5075496;28;20089;-72
2021/11/01 02:37:21;;;;;;;23.70;13.85;;;;;;;;;;5075978;28;20021;-72
2021/11/01 02:39:52;;;;;;;20.98;14.18;;;;;;;;;;5075915;28;20031;-72
2021/11/01 02:42:19;;;;;;;20.95;12.30;;;;;;;;;;5075458;28;20073;-72
2021/11/01 02:44:58;;;;;;;20.73;12.82;;;;;;;;;;5075239;28;20046;-72
2021/11/01 02:47:24;;;;;;;19.23;12.45;;;;;;;;;;5075338;28;20017;-72
2021/11/01 02:49:51;;;;;;;19.75;12.05;;;;;;;;;;5075711;28;20059;-72
2021/11/01 02:52:17;;;;;;;23.45;12.55;;;;;;;;;;5075478;28;20108;-72
2021/11/01 02:54:44;;;;;;;20.30;12.38;;;;;;;;;;5075170;28;20024;-72
2021/11/01 02:57:11;;;;;;;19.50;12.30;;;;;;;;;;5075684;28;20461;-72
2021/11/01 02:59:37;;;;;;;22.13;12.05;;;;;;;;;;5057522;28;20503;-72
2021/11/01 03:02:04;;;;;;;22.48;13.35;;;;;;;;;;5075080;28;20195;-72
2021/11/01 03:04:30;;;;;;;18.42;11.63;;;;;;;;;;5075392;28;20024;-72
2021/11/01 03:06:57;;;;;;;21.30;12.10;;;;;;;;;;5075241;28;20028;-72
2021/11/01 03:09:23;;;;;;;19.98;12.88;;;;;;;;;;5075045;28;20035;-72
2021/11/01 03:11:50;;;;;;;21.42;12.40;;;;;;;;;;5075081;28;20051;-72
2021/11/01 03:14:18;;;;;;;21.13;13.13;;;;;;;;;;5075379;28;20074;-72
2021/11/01 03:16:45;;;;;;;18.88;11.45;;;;;;;;;;5040306;28;20116;-72
2021/11/01 03:19:18;;;;;;;21.13;12.95;;;;;;;;;;5075134;28;20074;-72
2021/11/01 03:21:45;;;;;;;18.15;11.07;;;;;;;;;;5075262;28;20020;-72
2021/11/01 03:24:13;;;;;;;22.45;13.18;;;;;;;;;;5074729;28;20027;-72
2021/11/01 03:26:39;;;;;;;22.23;13.02;;;;;;;;;;5075274;28;20024;-72
2021/11/01 03:29:06;;;;;;;22.58;12.77;;;;;;;;;;5074925;28;20029;-72
2021/11/01 03:31:33;;;;;;;21.40;13.50;;;;;;;;;;5074453;28;20035;-72
2021/11/01 03:33:59;;;;;;;21.38;12.57;;;;;;;;;;5074806;28;20032;-72
2021/11/01 03:36:26;;;;;;;20.55;11.77;;;;;;;;;;5074769;28;20024;-72
2021/11/01 03:38:54;;;;;;;20.23;12.05;;;;;;;;;;5074228;28;20039;-72
2021/11/01 03:41:22;;;;;;;20.63;12.13;;;;;;;;;;5074825;28;20013;-72
2021/11/01 03:44:03;;;;;;;20.33;11.15;;;;;;;;;;5056281;28;20024;-72
2021/11/01 03:47:16;;;;;;;22.02;13.52;;;;;;;;;;5074700;28;20020;-72
2021/11/01 03:49:16;;;;;;;22.83;12.00;;;;;;;;;;5066923;28;20556;-72
2021/11/01 03:51:50;;;;;;;20.10;12.68;;;;;;;;;;5074128;28;20111;-72
2021/11/01 03:54:22;;;;;;;17.73;11.05;;;;;;;;;;5074888;28;20503;-72
2021/11/01 03:56:51;;;;;;;19.20;11.50;;;;;;;;;;5055631;28;20020;-72
2021/11/01 03:59:17;;;;;;;27.88;14.82;;;;;;;;;;5073929;28;20142;-72
2021/11/01 04:01:44;;;;;;;102.47;59.90;;;;;;;;;;5074210;28;20029;-72
2021/11/01 04:04:11;;;;;;;152.25;90.43;;;;;;;;;;5074184;28;20413;-72
2021/11/01 04:06:41;;;;;;;194.43;109.25;;;;;;;;;;5073716;28;20074;-72
2021/11/01 04:09:12;;;;;;;231.73;117.07;;;;;;;;;;5074284;28;20069;-72
2021/11/01 04:11:39;;;;;;;231.23;125.88;;;;;;;;;;5073776;28;20454;-71
2021/11/01 04:14:13;;;;;;;214.60;108.00;;;;;;;;;;5073745;28;20393;-72
2021/11/01 04:16:43;;;;;;;169.55;82.95;;;;;;;;;;5073859;28;20020;-72
2021/11/01 04:21:42;;;;;;;63.83;34.53;;;;;;;;;;5073859;28;20412;-72
2021/11/01 04:24:09;;;;;;;47.53;24.88;;;;;;;;;;5073922;28;20024;-72
2021/11/01 04:26:35;;;;;;;49.72;25.42;;;;;;;;;;5073566;28;20021;-72
2021/11/01 04:29:05;;;;;;;47.05;28.42;;;;;;;;;;5073723;28;20385;-72
2021/11/01 04:31:34;;;;;;;81.78;44.00;;;;;;;;;;5073575;28;20032;-72
2021/11/01 04:34:07;;;;;;;98.80;56.90;;;;;;;;;;5073209;28;20384;-72
2021/11/01 04:36:34;;;;;;;82.30;46.50;;;;;;;;;;5073977;28;20048;-71
2021/11/01 04:39:09;;;;;;;78.18;42.25;;;;;;;;;;5073545;28;20024;-72
2021/11/01 04:54:46;;;;;;;34.60;21.02;;;;;;;;;;5073317;28;20123;-72
2021/11/01 04:57:12;;;;;;;32.15;19.00;;;;;;;;;;5073621;28;20074;-72
2021/11/01 04:59:39;;;;;;;36.92;19.80;;;;;;;;;;5073503;28;20464;-72
2021/11/01 05:02:06;;;;;;;30.40;17.67;;;;;;;;;;5054962;28;20067;-73
2021/11/01 05:04:35;;;;;;;34.22;19.05;;;;;;;;;;5073523;28;20020;-74
2021/11/01 05:07:03;;;;;;;32.15;20.13;;;;;;;;;;5073279;28;20025;-71
2021/11/01 05:09:39;;;;;;;35.42;21.67;;;;;;;;;;5072910;28;20012;-73
2021/11/01 05:12:21;;;;;;;36.53;24.08;;;;;;;;;;5073165;28;20044;-73
2021/11/01 05:14:56;;;;;;;37.33;23.25;;;;;;;;;;5073314;28;20052;-73
2021/11/01 05:17:36;;;;;;;28.88;16.52;;;;;;;;;;5072964;28;20467;-73
2021/11/01 05:20:12;;;;;;;26.77;15.50;;;;;;;;;;5073446;28;20070;-72
2021/11/01 05:28:02;;;;;;;64.60;32.80;;;;;;;;;;5073178;28;20048;-73
2021/11/01 05:30:33;;;;;;;77.18;40.30;;;;;;;;;;5072972;28;20067;-74
2021/11/01 05:33:03;;;;;;;71.50;36.28;;;;;;;;;;5073342;28;20039;-73
2021/11/01 05:35:30;;;;;;;49.28;28.20;;;;;;;;;;5073067;28;20013;-73
2021/11/01 05:37:56;;;;;;;49.58;30.38;;;;;;;;;;5072679;28;20025;-75
2021/11/01 05:40:22;;;;;;;55.63;30.05;;;;;;;;;;5073036;28;20028;-75
2021/11/01 05:42:48;;;;;;;41.08;24.27;;;;;;;;;;5073318;28;20468;-74
2021/11/01 05:45:15;;;;;;;31.13;20.23;;;;;;;;;;5072633;28;20028;-75
2021/11/01 05:47:44;;;;;;;42.30;21.77;;;;;;;;;;5073050;28;20024;-76
2021/11/01 05:50:11;;;;;;;41.38;23.85;;;;;;;;;;5072979;28;20473;-73
2021/11/01 05:52:38;;;;;;;40.88;23.17;;;;;;;;;;5072550;28;20024;-76
2021/11/01 05:55:20;;;;;;;42.97;25.83;;;;;;;;;;5072933;28;20024;-73
2021/11/01 05:58:05;;;;;;;38.05;22.80;;;;;;;;;;5072843;28;20029;-74
2021/11/01 06:13:30;;;;;;;50.97;29.58;;;;;;;;;;5070742;28;20045;-73
2021/11/01 06:15:57;;;;;;;49.05;29.92;;;;;;;;;;5071880;28;20012;-73
2021/11/01 06:18:35;;;;;;;53.03;30.77;;;;;;;;;;5071742;28;20024;-70
2021/11/01 06:21:01;;;;;;;54.17;29.40;;;;;;;;;;5076643;28;20063;-72
2021/11/01 06:23:36;;;;;;;55.88;32.90;;;;;;;;;;5074183;28;20495;-72
2021/11/01 06:26:03;;;;;;;43.47;27.98;;;;;;;;;;5056747;28;20028;-72
2021/11/01 06:28:30;;;;;;;48.28;28.35;;;;;;;;;;5075309;28;20414;-71
2021/11/01 06:31:05;;;;;;;46.05;28.63;;;;;;;;;;5074260;28;20404;-72
2021/11/01 06:39:19;;;;;;;76.78;44.33;;;;;;;;;;5075897;28;20058;-72
2021/11/01 06:44:47;;;;;;;58.42;35.05;;;;;;;;;;5081132;28;20082;-72
2021/11/01 07:16:45;;;;;;;29.75;18.65;;;;;;;;;;5054596;28;20040;-72
2021/11/01 07:19:32;;;;;;;38.38;27.50;;;;;;;;;;5037280;28;20021;-72
2021/11/01 07:38:39;;;;;;;29.95;18.60;;;;;;;;;;5070968;28;20036;-72
2021/11/01 08:23:38;;;;;;;24.58;16.08;;;;;;;;;;5105904;28;20040;-73
2021/11/01 08:29:40;;;;;;;23.17;15.30;;;;;;;;;;5107986;27;20846;-73
2021/11/01 08:38:49;;;;;;;23.27;14.18;;;;;;;;;;5106238;28;20034;-72
2021/11/01 08:50:39;;;;;;;20.60;13.25;;;;;;;;;;5110405;27;20380;-73
2021/11/01 09:26:10;;;;;;;20.40;12.80;;;;;;;;;;5088308;28;20020;-72
2021/11/01 09:28:46;;;;;;;29.50;15.10;;;;;;;;;;5069998;28;20380;-72
2021/11/01 09:42:10;;;;;;;25.80;16.75;;;;;;;;;;5110377;28;20039;-73
2021/11/01 09:46:03;;;;;;;17.35;11.48;;;;;;;;;;5090713;27;20423;-71
2021/11/01 09:48:29;;;;;;;19.35;13.25;;;;;;;;;;5105713;28;20028;-70
2021/11/01 09:50:56;;;;;;;19.77;12.20;;;;;;;;;;5090240;28;20069;-70
2021/11/01 09:53:29;;;;;;;21.85;13.05;;;;;;;;;;5090416;28;20093;-70
2021/11/01 09:57:04;;;;;;;18.83;12.90;;;;;;;;;;5107705;27;20389;-70
2021/11/01 10:00:53;;;;;;;16.73;12.23;;;;;;;;;;5070136;28;20507;-69
2021/11/01 10:03:19;;;;;;;17.58;11.93;;;;;;;;;;5069469;28;20078;-70
2021/11/01 10:10:59;;;;;;;15.65;11.27;;;;;;;;;;5109220;27;20393;-70
2021/11/01 10:13:26;;;;;;;21.58;12.95;;;;;;;;;;5125734;28;20027;-71
2021/11/01 10:18:48;;;;;;;17.63;11.98;;;;;;;;;;5130679;28;20111;-68
2021/11/01 10:21:18;;;;;;;16.02;10.27;;;;;;;;;;5130750;28;20035;-69
2021/11/01 10:23:47;;;;;;;17.58;12.20;;;;;;;;;;5129715;28;20387;-69
2021/11/01 10:26:16;;;;;;;19.50;12.00;;;;;;;;;;5130245;27;20103;-71
2021/11/01 10:29:58;;;;;;;15.68;10.10;;;;;;;;;;5110627;27;20430;-67
2021/11/01 10:37:27;;;;;;;14.70;9.38;;;;;;;;;;5110046;27;20393;-69
2021/11/01 10:39:55;;;;;;;13.68;8.73;;;;;;;;;;5109395;28;20024;-68
2021/11/01 10:42:28;;;;;;;16.52;10.38;;;;;;;;;;5121008;28;20054;-69
2021/11/01 10:56:30;;;;;;;14.20;9.38;;;;;;;;;;5108303;28;20085;-68
2021/11/01 10:56:36;;;;;;;15.25;10.23;;;;;;;;;;5108290;28;20070;-68
2021/11/01 11:13:21;;;;;;;14.07;8.63;;;;;;;;;;5091930;28;20057;-71
2021/11/01 11:15:52;;;;;;;16.90;9.20;;;;;;;;;;5087123;28;20028;-69
2021/11/01 11:21:03;;;;;;;15.02;9.65;;;;;;;;;;5087813;28;20082;-69
2021/11/01 11:29:16;;;;;;;20.55;11.27;;;;;;;;;;5088198;28;20103;-70
2021/11/01 11:49:34;;;;;;;16.10;11.10;;;;;;;;;;5089372;28;20044;-70
2021/11/01 11:52:03;;;;;;;19.50;13.13;;;;;;;;;;5089643;28;20021;-72
2021/11/01 11:54:31;;;;;;;16.75;10.80;;;;;;;;;;5089663;28;20480;-73
2021/11/01 11:57:03;;;;;;;14.10;8.00;;;;;;;;;;5088968;28;20032;-73
2021/11/01 11:59:34;;;;;;;12.53;8.30;;;;;;;;;;5089817;28;20107;-72
2021/11/01 12:02:04;;;;;;;12.68;9.15;;;;;;;;;;5089677;28;20095;-73
2021/11/01 12:05:58;;;;;;;15.77;9.38;;;;;;;;;;5070340;28;20415;-73
2021/11/01 12:08:38;;;;;;;15.20;8.27;;;;;;;;;;5069056;28;20115;-73
2021/11/01 12:19:04;;;;;;;17.83;9.55;;;;;;;;;;5049347;28;20405;-72
2021/11/01 12:21:32;;;;;;;12.82;8.75;;;;;;;;;;5065118;28;20099;-71
2021/11/01 12:23:58;;;;;;;11.60;8.23;;;;;;;;;;5049728;28;20033;-72
2021/11/01 12:26:25;;;;;;;13.88;8.50;;;;;;;;;;5049358;28;20025;-72
2021/11/01 12:28:52;;;;;;;12.60;7.95;;;;;;;;;;5049759;28;20018;-72
2021/11/01 12:31:19;;;;;;;9.70;6.40;;;;;;;;;;5049597;28;20075;-72
2021/11/01 12:33:53;;;;;;;12.63;8.05;;;;;;;;;;5049597;28;20036;-72
2021/11/01 12:36:28;;;;;;;12.52;7.90;;;;;;;;;;5049527;28;20117;-74
2021/11/01 12:39:08;;;;;;;14.90;8.52;;;;;;;;;;5050466;28;20040;-73
2021/11/01 12:57:44;;;;;;;13.05;8.00;;;;;;;;;;5067768;28;20032;-74
2021/11/01 13:00:11;;;;;;;18.70;8.90;;;;;;;;;;5068211;28;20514;-74
2021/11/01 13:02:42;;;;;;;14.52;9.20;;;;;;;;;;5068242;28;20035;-73
2021/11/01 13:05:21;;;;;;;12.43;7.60;;;;;;;;;;5067856;28;20047;-73
2021/11/01 13:07:53;;;;;;;11.80;7.55;;;;;;;;;;5068373;28;20102;-74
2021/11/01 13:10:25;;;;;;;11.63;7.22;;;;;;;;;;5068596;28;20028;-74
2021/11/01 13:18:16;;;;;;;11.63;7.05;;;;;;;;;;5056088;28;20474;-73
2021/11/01 13:20:46;;;;;;;11.48;7.47;;;;;;;;;;5054424;28;20029;-74
2021/11/01 13:23:12;;;;;;;12.80;7.68;;;;;;;;;;5052035;28;20201;-74
2021/11/01 13:26:04;;;;;;;11.18;7.90;;;;;;;;;;5055294;28;20121;-74
2021/11/01 13:28:50;;;;;;;12.10;7.47;;;;;;;;;;5053826;28;20174;-74
2021/11/01 13:36:50;;;;;;;12.65;8.43;;;;;;;;;;5053505;28;20036;-74
2021/11/01 13:39:24;;;;;;;16.63;11.02;;;;;;;;;;5051839;28;20611;-74
2021/11/01 13:41:50;;;;;;;23.13;13.27;;;;;;;;;;5052761;28;20484;-74
2021/11/01 13:44:20;;;;;;;19.17;11.60;;;;;;;;;;5053682;28;20082;-75
2021/11/01 13:46:51;;;;;;;17.45;10.45;;;;;;;;;;5055234;28;20378;-73
2021/11/01 13:49:19;;;;;;;14.18;9.27;;;;;;;;;;5050797;28;20020;-74
2021/11/01 13:51:48;;;;;;;12.93;8.52;;;;;;;;;;5053244;28;20021;-74
2021/11/01 13:56:49;;;;;;;;;;;;;;;;;;5052936;28;20178;-74
2021/11/01 14:29:25;;;;;;;15.85;11.20;;;;;;;;;;5049867;28;20489;-74
2021/11/01 15:14:09;;;;;;;101.60;66.82;;;;;;;;;;5070083;28;20041;-74
2021/11/01 15:29:31;;;;;;;40.97;27.35;;;;;;;;;;5110256;28;20433;-71
2021/11/01 15:38:59;;;;;;;68.57;38.67;;;;;;;;;;5110909;27;20891;-73
2021/11/01 16:15:22;;;;;;;46.60;30.23;;;;;;;;;;5110815;28;20440;-73
2021/11/01 16:17:09;;;;;;;68.43;42.85;;;;;;;;;;5110709;27;20850;-73
2021/11/01 16:19:41;;;;;;;55.55;36.13;;;;;;;;;;5111533;27;20450;-73
2021/11/01 16:22:11;;;;;;;65.38;38.60;;;;;;;;;;5107235;28;20043;-74
2021/11/01 16:24:57;;;;;;;74.55;41.95;;;;;;;;;;5110110;27;20385;-74
2021/11/01 16:33:32;;;;;;;69.07;42.47;;;;;;;;;;5110761;28;20032;-74
2021/11/01 16:35:59;;;;;;;99.57;62.75;;;;;;;;;;5110765;28;20472;-73
2021/11/01 16:39:19;;;;;;;64.70;41.22;;;;;;;;;;5110865;27;20458;-73
2021/11/01 16:43:53;;;;;;;120.53;80.75;;;;;;;;;;5111913;27;20462;-74
2021/11/01 16:46:19;;;;;;;119.63;77.55;;;;;;;;;;5110702;28;20491;-74
2021/11/01 16:48:46;;;;;;;158.27;99.60;;;;;;;;;;5111114;28;20020;-74
2021/11/01 16:52:20;;;;;;;140.57;91.78;;;;;;;;;;5110671;27;20401;-74
2021/11/01 16:55:57;;;;;;;263.05;161.30;;;;;;;;;;5067197;28;20403;-74
2021/11/01 16:59:55;;;;;;;197.35;117.68;;;;;;;;;;5110936;27;20393;-73
2021/11/01 17:10:57;;;;;;;106.53;63.25;;;;;;;;;;5110871;28;20024;-74
2021/11/01 17:21:19;;;;;;;208.00;126.47;;;;;;;;;;5110758;28;20466;-73
2021/11/01 17:22:37;;;;;;;269.75;162.40;;;;;;;;;;5111236;27;20404;-73
2021/11/01 17:25:14;;;;;;;248.77;155.82;;;;;;;;;;5111048;28;20377;-73
2021/11/01 17:31:10;;;;;;;182.07;116.43;;;;;;;;;;5068238;28;20040;-73
2021/11/01 17:36:49;;;;;;;122.85;75.70;;;;;;;;;;5111129;27;20462;-74
2021/11/01 18:40:37;;;;;;;110.20;72.28;;;;;;;;;;5109770;28;20024;-73
2021/11/01 18:51:05;;;;;;;115.22;73.38;;;;;;;;;;5109943;28;20034;-74
2021/11/01 18:53:44;;;;;;;129.02;75.70;;;;;;;;;;5099278;28;20024;-73
2021/11/01 18:56:12;;;;;;;116.90;70.55;;;;;;;;;;5095965;28;20028;-73
2021/11/01 18:58:42;;;;;;;107.78;67.40;;;;;;;;;;5095842;28;20099;-73
2021/11/01 19:01:11;;;;;;;114.30;67.97;;;;;;;;;;5095950;28;20035;-73
2021/11/01 19:03:43;;;;;;;109.32;63.45;;;;;;;;;;5095847;28;20055;-73
2021/11/01 19:10:03;;;;;;;85.78;50.97;;;;;;;;;;5074318;28;20261;-73
2021/11/01 20:04:47;;;;;;;34.92;20.88;;;;;;;;;;5093991;28;20146;-73
2021/11/01 20:15:11;;;;;;;81.10;42.28;;;;;;;;;;5094591;28;20020;-74
2021/11/01 21:25:01;;;;;;;35.97;20.67;;;;;;;;;;5070027;28;20028;-74
2021/11/01 21:27:27;;;;;;;42.25;24.08;;;;;;;;;;5093097;28;20074;-74
2021/11/01 21:29:54;;;;;;;43.72;26.17;;;;;;;;;;5093647;28;20031;-73
2021/11/01 21:32:20;;;;;;;32.70;21.08;;;;;;;;;;5093246;28;20028;-73
2021/11/01 21:35:03;;;;;;;36.22;21.40;;;;;;;;;;5092983;28;20051;-73
2021/11/01 21:37:29;;;;;;;32.42;19.52;;;;;;;;;;5093302;28;20019;-74
2021/11/01 21:39:58;;;;;;;32.33;20.85;;;;;;;;;;5092923;28;20027;-74
2021/11/01 21:42:24;;;;;;;29.52;19.50;;;;;;;;;;5091610;28;20071;-73
2021/11/01 21:44:52;;;;;;;42.72;21.98;;;;;;;;;;5093121;28;20072;-73
2021/11/01 21:47:18;;;;;;;42.78;24.88;;;;;;;;;;5092822;28;20482;-73
2021/11/01 21:49:45;;;;;;;45.65;27.40;;;;;;;;;;5093287;28;20383;-73
2021/11/01 21:52:13;;;;;;;41.53;23.55;;;;;;;;;;5093201;28;20052;-73
2021/11/01 21:54:50;;;;;;;36.65;21.90;;;;;;;;;;5092727;28;20487;-73
2021/11/01 21:57:22;;;;;;;42.10;23.73;;;;;;;;;;5092913;28;20100;-73
2021/11/01 22:10:40;;;;;;;43.33;27.15;;;;;;;;;;5092603;28;20089;-74
2021/11/01 22:18:33;;;;;;;42.03;26.77;;;;;;;;;;5092881;28;20060;-73
2021/11/01 22:21:19;;;;;;;39.95;28.88;;;;;;;;;;5092844;28;20468;-73
2021/11/01 22:34:26;;;;;;;44.65;27.52;;;;;;;;;;5096556;28;20028;-74
2021/11/01 22:39:47;;;;;;;47.08;28.63;;;;;;;;;;5096944;28;20123;-73
2021/11/01 22:58:01;;;;;;;32.13;18.88;;;;;;;;;;5095859;28;20021;-73
2021/11/01 23:00:33;;;;;;;32.20;18.30;;;;;;;;;;5096004;28;20024;-74
2021/11/01 23:03:05;;;;;;;35.97;21.10;;;;;;;;;;5096130;28;20070;-74
2021/11/01 23:05:59;;;;;;;37.58;22.08;;;;;;;;;;5095660;28;20073;-74
2021/11/01 23:33:00;;;;;;;62.30;35.58;;;;;;;;;;5095094;28;20034;-74
2021/11/01 23:35:27;;;;;;;64.55;36.25;;;;;;;;;;5095400;28;20024;-74
2021/11/01 23:37:53;;;;;;;59.25;36.85;;;;;;;;;;5093999;28;20051;-74
2021/11/01 23:40:19;;;;;;;66.68;36.58;;;;;;;;;;5094654;28;20054;-73
2021/11/01 23:42:45;;;;;;;55.85;35.17;;;;;;;;;;5095351;28;20024;-73
2021/11/01 23:45:11;;;;;;;60.78;33.53;;;;;;;;;;5095152;28;20464;-73
2021/11/01 23:47:38;;;;;;;61.75;34.30;;;;;;;;;;5093447;28;20491;-74
2021/11/01 23:50:04;;;;;;;51.55;32.80;;;;;;;;;;5095046;28;20031;-74
2021/11/01 23:52:39;;;;;;;45.55;28.63;;;;;;;;;;5095013;28;20024;-74
2021/11/01 23:55:06;;;;;;;39.47;25.48;;;;;;;;;;5094465;28;20028;-74
2021/11/01 23:57:32;;;;;;;43.35;25.50;;;;;;;;;;5093665;28;20052;-73
2021/11/01 23:59:59;;;;;;;35.33;24.48;;;;;;;;;;5095257;28;20460;-74
